createdAt,value
2019-03-19T09:19:35.629Z,7424.00
2019-03-19T09:20:37.336Z,7360.00
2019-03-19T09:21:37.329Z,7360.00
2019-03-19T09:22:37.366Z,7224.00
2019-03-19T09:23:37.337Z,6756.00
2019-03-19T09:24:37.338Z,8024.00
2019-03-19T09:25:37.338Z,7800.00
2019-03-19T09:26:37.339Z,7460.00
2019-03-19T09:27:37.345Z,7852.00
2019-03-19T09:28:37.336Z,8444.00
2019-03-19T09:29:37.335Z,10352.00
2019-03-19T09:30:37.327Z,11192.00
2019-03-19T09:31:37.339Z,11072.00
2019-03-19T09:32:37.346Z,10708.00
2019-03-19T09:33:37.348Z,10508.00
2019-03-19T09:34:37.334Z,10320.00
2019-03-19T09:35:37.339Z,10400.00
2019-03-19T09:36:37.337Z,11416.00
2019-03-19T09:37:35.424Z,10376.00
2019-03-19T09:39:06.783Z,12816.00
2019-03-19T09:40:08.543Z,14008.00
2019-03-19T09:41:08.534Z,14164.00
2019-03-19T09:42:08.546Z,14020.00
2019-03-19T09:43:08.561Z,13924.00
2019-03-19T09:44:08.547Z,13932.00
2019-03-19T09:45:08.556Z,13456.00
2019-03-19T09:46:08.552Z,13616.00
2019-03-19T09:47:08.551Z,11580.00
2019-03-19T09:48:08.581Z,12736.00
2019-03-19T09:49:08.545Z,12436.00
2019-03-19T09:50:08.531Z,11696.00
2019-03-19T09:51:08.554Z,10900.00
2019-03-19T09:52:08.544Z,12460.00
2019-03-19T09:53:08.545Z,11540.00
2019-03-19T09:54:08.543Z,10856.00
2019-03-19T09:55:08.555Z,10236.00
2019-03-19T09:56:08.553Z,10324.00
2019-03-19T09:57:08.543Z,10816.00
2019-03-19T09:58:08.543Z,11408.00
2019-03-19T09:59:07.545Z,12128.00
2019-03-19T10:00:08.056Z,12568.00
2019-03-19T10:01:08.097Z,13620.00
2019-03-19T10:02:08.044Z,14816.00
2019-03-19T10:03:08.045Z,16192.00
2019-03-19T10:04:08.041Z,15936.00
2019-03-19T10:05:07.043Z,15076.00
2019-03-19T10:06:13.835Z,14408.00
2019-03-19T10:07:09.044Z,13904.00
2019-03-19T10:08:08.043Z,13748.00
2019-03-19T10:09:08.043Z,12724.00
2019-03-19T10:10:08.053Z,11152.00
2019-03-19T10:11:08.102Z,10880.00
2019-03-19T10:12:08.041Z,12544.00
2019-03-19T10:13:08.032Z,12912.00
2019-03-19T10:14:08.043Z,13980.00
2019-03-19T10:15:08.045Z,13328.00
2019-03-19T10:16:07.681Z,12452.00
2019-03-19T10:17:08.053Z,13396.00
2019-03-19T10:18:08.043Z,12980.00
2019-03-19T10:19:08.043Z,10796.00
2019-03-19T10:20:08.044Z,10928.00
2019-03-19T10:21:08.042Z,9944.00
2019-03-19T10:22:08.048Z,9184.00
2019-03-19T10:23:08.041Z,7808.00
2019-03-19T10:24:08.041Z,6692.00
2019-03-19T10:25:08.031Z,5756.00
2019-03-19T10:26:08.054Z,5100.00
2019-03-19T10:27:08.066Z,4944.00
2019-03-19T10:28:09.071Z,5020.00
2019-03-19T10:29:08.043Z,5404.00
2019-03-19T10:30:08.041Z,5900.00
2019-03-19T10:31:08.033Z,6172.00
2019-03-19T10:32:08.048Z,6280.00
2019-03-19T10:33:08.040Z,7656.00
2019-03-19T10:34:08.042Z,7628.00
2019-03-19T10:35:08.042Z,7724.00
2019-03-19T10:36:08.035Z,7912.00
2019-03-19T10:37:08.040Z,7892.00
2019-03-19T10:38:08.050Z,8156.00
2019-03-19T10:39:09.184Z,8112.00
2019-03-19T10:40:08.053Z,8160.00
2019-03-19T10:41:08.045Z,8168.00
2019-03-19T10:42:08.039Z,8208.00
2019-03-19T10:43:07.040Z,8456.00
2019-03-19T10:44:08.047Z,8956.00
2019-03-19T10:45:07.549Z,9068.00
2019-03-19T10:46:07.541Z,8064.00
2019-03-19T10:47:07.541Z,7524.00
2019-03-19T10:48:07.552Z,6876.00
2019-03-19T10:49:07.541Z,6104.00
2019-03-19T10:50:07.539Z,5680.00
2019-03-19T10:51:07.545Z,5464.00
2019-03-19T10:52:07.541Z,5424.00
2019-03-19T10:53:07.541Z,6092.00
2019-03-19T10:54:05.950Z,6424.00
2019-03-19T10:55:07.528Z,6376.00
2019-03-19T10:56:07.555Z,6408.00
2019-03-19T10:57:07.538Z,6504.00
2019-03-19T10:58:11.278Z,6624.00
2019-03-19T10:59:07.543Z,7008.00
2019-03-19T11:00:07.540Z,7428.00
2019-03-19T11:01:07.545Z,7880.00
2019-03-19T11:02:07.547Z,8528.00
2019-03-19T11:03:07.545Z,9404.00
2019-03-19T11:04:07.528Z,10492.00
2019-03-19T11:05:05.830Z,11572.00
2019-03-19T11:06:07.543Z,12728.00
2019-03-19T11:07:07.540Z,13944.00
2019-03-19T11:08:07.572Z,15352.00
2019-03-19T11:09:07.580Z,16832.00
2019-03-19T11:10:07.540Z,18624.00
2019-03-19T11:11:07.540Z,20416.00
2019-03-19T11:12:07.540Z,22240.00
2019-03-19T11:13:07.540Z,21696.00
2019-03-19T11:14:07.546Z,19904.00
2019-03-19T11:15:07.552Z,18592.00
2019-03-19T11:16:05.712Z,17664.00
2019-03-19T11:17:07.538Z,16704.00
2019-03-19T11:18:07.540Z,16224.00
2019-03-19T11:19:07.540Z,15396.00
2019-03-19T11:20:07.552Z,14824.00
2019-03-19T11:21:07.542Z,13940.00
2019-03-19T11:22:07.538Z,13964.00
2019-03-19T11:23:07.542Z,14532.00
2019-03-19T11:24:07.542Z,12696.00
2019-03-19T11:25:07.540Z,12092.00
2019-03-19T11:26:07.547Z,11416.00
2019-03-19T11:27:07.538Z,10884.00
2019-03-19T11:28:07.528Z,9536.00
2019-03-19T11:29:07.537Z,9320.00
2019-03-19T11:30:07.567Z,9188.00
2019-03-19T11:31:07.541Z,9200.00
2019-03-19T11:32:06.541Z,8276.00
2019-03-19T11:33:07.040Z,6804.00
2019-03-19T11:34:07.039Z,6528.00
2019-03-19T11:35:07.049Z,6584.00
2019-03-19T11:36:07.028Z,6812.00
2019-03-19T11:37:07.048Z,6308.00
2019-03-19T11:38:07.051Z,5896.00
2019-03-19T11:39:07.040Z,6256.00
2019-03-19T11:40:07.038Z,6912.00
2019-03-19T11:41:07.445Z,7712.00
2019-03-19T11:42:07.041Z,7472.00
2019-03-19T11:43:05.443Z,7504.00
2019-03-19T11:44:07.040Z,6868.00
2019-03-19T11:45:07.042Z,8212.00
2019-03-19T11:46:07.038Z,8888.00
2019-03-19T11:47:07.027Z,9100.00
2019-03-19T11:48:07.057Z,7964.00
2019-03-19T11:49:07.095Z,7056.00
2019-03-19T11:50:07.105Z,6724.00
2019-03-19T11:51:07.041Z,7084.00
2019-03-19T11:52:07.039Z,8680.00
2019-03-19T11:53:07.041Z,8640.00
2019-03-19T11:54:05.326Z,8584.00
2019-03-19T11:55:07.027Z,8072.00
2019-03-19T11:56:07.040Z,8860.00
2019-03-19T11:57:07.042Z,9924.00
2019-03-19T11:58:07.043Z,10736.00
2019-03-19T11:59:07.027Z,12104.00
2019-03-19T12:00:11.524Z,14416.00
2019-03-19T12:01:07.038Z,15840.00
2019-03-19T12:02:07.042Z,16576.00
2019-03-19T12:03:15.525Z,17408.00
2019-03-19T12:04:08.040Z,17120.00
2019-03-19T12:05:07.043Z,16608.00
2019-03-19T12:06:07.046Z,13788.00
2019-03-19T12:07:07.037Z,12536.00
2019-03-19T12:08:07.027Z,11436.00
2019-03-19T12:09:07.037Z,11104.00
2019-03-19T12:10:05.133Z,10532.00
2019-03-19T12:11:07.049Z,9500.00
2019-03-19T12:12:07.058Z,10860.00
2019-03-19T12:13:07.039Z,11948.00
2019-03-19T12:14:07.044Z,12372.00
2019-03-19T12:15:07.049Z,11660.00
2019-03-19T12:16:07.068Z,11188.00
2019-03-19T12:17:07.039Z,10164.00
2019-03-19T12:18:06.549Z,9848.00
2019-03-19T12:19:06.536Z,9680.00
2019-03-19T12:20:06.528Z,10140.00
2019-03-19T12:21:05.012Z,10872.00
2019-03-19T12:22:06.540Z,11668.00
2019-03-19T12:23:06.550Z,11992.00
2019-03-19T12:24:06.538Z,11368.00
2019-03-19T12:25:06.550Z,10908.00
2019-03-19T12:26:06.538Z,10424.00
2019-03-19T12:27:06.536Z,11128.00
2019-03-19T12:28:06.541Z,11048.00
2019-03-19T12:29:06.570Z,11056.00
2019-03-19T12:30:06.571Z,12036.00
2019-03-19T12:31:06.544Z,11628.00
2019-03-19T12:32:06.526Z,12076.00
2019-03-19T12:33:06.537Z,10108.00
2019-03-19T12:34:06.538Z,9764.00
2019-03-19T12:35:06.547Z,9376.00
2019-03-19T12:36:06.539Z,8712.00
2019-03-19T12:37:06.547Z,9268.00
2019-03-19T12:38:06.547Z,11476.00
2019-03-19T12:39:06.527Z,12156.00
2019-03-19T12:40:06.536Z,13192.00
2019-03-19T12:41:06.540Z,12728.00
2019-03-19T12:42:06.539Z,13312.00
2019-03-19T12:43:06.543Z,13552.00
2019-03-19T12:44:06.551Z,14156.00
2019-03-19T12:45:06.539Z,13820.00
2019-03-19T12:46:06.548Z,15092.00
2019-03-19T12:47:06.543Z,15240.00
2019-03-19T12:48:04.740Z,14932.00
2019-03-19T12:49:06.548Z,14568.00
2019-03-19T12:50:06.541Z,13676.00
2019-03-19T12:51:06.540Z,13464.00
2019-03-19T12:52:06.542Z,14480.00
2019-03-19T12:53:06.537Z,15124.00
2019-03-19T12:54:06.544Z,15236.00
2019-03-19T12:55:06.545Z,14688.00
2019-03-19T12:56:06.570Z,15840.00
2019-03-19T12:57:06.560Z,13932.00
2019-03-19T12:58:06.565Z,11576.00
2019-03-19T12:59:06.527Z,10780.00
2019-03-19T13:00:06.540Z,9044.00
2019-03-19T13:01:06.607Z,8608.00
2019-03-19T13:02:06.536Z,9968.00
2019-03-19T13:03:06.527Z,11240.00
2019-03-19T13:04:06.044Z,11612.00
2019-03-19T13:05:06.036Z,11060.00
2019-03-19T13:06:06.040Z,10252.00
2019-03-19T13:07:06.047Z,9692.00
2019-03-19T13:08:06.038Z,10104.00
2019-03-19T13:09:06.059Z,9992.00
2019-03-19T13:10:06.068Z,8564.00
2019-03-19T13:11:06.076Z,8708.00
2019-03-19T13:12:06.037Z,9608.00
2019-03-19T13:13:06.041Z,10672.00
2019-03-19T13:14:06.056Z,11644.00
2019-03-19T13:15:04.447Z,13284.00
2019-03-19T13:16:06.035Z,15040.00
2019-03-19T13:17:06.041Z,13260.00
2019-03-19T13:18:06.039Z,12308.00
2019-03-19T13:19:06.202Z,11124.00
2019-03-19T13:20:06.051Z,11816.00
2019-03-19T13:21:06.051Z,12076.00
2019-03-19T13:22:06.037Z,11168.00
2019-03-19T13:23:06.036Z,12716.00
2019-03-19T13:24:06.039Z,14996.00
2019-03-19T13:25:06.035Z,16672.00
2019-03-19T13:26:04.327Z,18496.00
2019-03-19T13:27:06.051Z,19680.00
2019-03-19T13:28:06.042Z,20608.00
2019-03-19T13:29:06.049Z,19136.00
2019-03-19T13:30:06.037Z,17888.00
2019-03-19T13:31:06.031Z,16088.00
2019-03-19T13:32:06.058Z,15792.00
2019-03-19T13:33:06.041Z,13328.00
2019-03-19T13:34:06.045Z,12156.00
2019-03-19T13:35:06.026Z,12456.00
2019-03-19T13:36:06.055Z,10328.00
2019-03-19T13:37:06.052Z,10476.00
2019-03-19T13:38:06.063Z,10764.00
2019-03-19T13:39:06.057Z,11364.00
2019-03-19T13:40:06.047Z,12992.00
2019-03-19T13:41:06.038Z,14644.00
2019-03-19T13:42:06.036Z,15732.00
2019-03-19T13:43:06.030Z,15828.00
2019-03-19T13:44:06.044Z,15536.00
2019-03-19T13:45:06.036Z,15316.00
2019-03-19T13:46:06.040Z,14420.00
2019-03-19T13:47:06.040Z,12380.00
2019-03-19T13:48:06.036Z,13960.00
2019-03-19T13:49:06.051Z,9700.00
2019-03-19T13:50:06.051Z,10160.00
2019-03-19T13:51:05.603Z,11564.00
2019-03-19T13:52:05.538Z,11808.00
2019-03-19T13:53:04.542Z,11836.00
2019-03-19T13:54:05.537Z,12780.00
2019-03-19T13:55:05.528Z,13276.00
2019-03-19T13:56:05.548Z,12876.00
2019-03-19T13:57:05.537Z,13580.00
2019-03-19T13:58:05.541Z,14120.00
2019-03-19T13:59:05.545Z,13512.00
2019-03-19T14:00:05.550Z,11764.00
2019-03-19T14:01:05.539Z,10968.00
2019-03-19T14:02:05.537Z,10840.00
2019-03-19T14:03:05.526Z,10972.00
2019-03-19T14:04:03.902Z,12472.00
2019-03-19T14:05:05.539Z,13720.00
2019-03-19T14:06:05.546Z,13860.00
2019-03-19T14:07:05.537Z,14324.00
2019-03-19T14:08:05.539Z,15036.00
2019-03-19T14:09:05.539Z,14320.00
2019-03-19T14:10:05.540Z,14360.00
2019-03-19T14:11:05.553Z,14380.00
2019-03-19T14:12:05.539Z,15508.00
2019-03-19T14:13:05.548Z,15804.00
2019-03-19T14:14:05.538Z,14792.00
2019-03-19T14:15:05.528Z,14132.00
2019-03-19T14:16:05.526Z,13992.00
2019-03-19T14:17:06.658Z,14320.00
2019-03-19T14:18:05.573Z,14804.00
2019-03-19T14:19:05.541Z,14864.00
2019-03-19T14:20:03.721Z,14792.00
2019-03-19T14:21:05.545Z,14880.00
2019-03-19T14:22:05.539Z,15320.00
2019-03-19T14:23:05.541Z,16144.00
2019-03-19T14:24:05.550Z,16512.00
2019-03-19T14:25:05.539Z,15864.00
2019-03-19T14:26:05.536Z,15052.00
2019-03-19T14:27:05.539Z,14540.00
2019-03-19T14:28:05.537Z,14012.00
2019-03-19T14:29:05.547Z,14244.00
2019-03-19T14:30:05.555Z,14640.00
2019-03-19T14:31:08.882Z,14424.00
2019-03-19T14:32:05.539Z,13568.00
2019-03-19T14:33:05.539Z,12920.00
2019-03-19T14:34:05.556Z,12940.00
2019-03-19T14:35:05.539Z,13116.00
2019-03-19T14:36:05.549Z,13448.00
2019-03-19T14:37:04.540Z,13524.00
2019-03-19T14:38:05.037Z,14084.00
2019-03-19T14:39:05.037Z,13924.00
2019-03-19T14:40:05.044Z,13472.00
2019-03-19T14:41:05.036Z,13328.00
2019-03-19T14:42:05.049Z,13636.00
2019-03-19T14:43:05.049Z,12788.00
2019-03-19T14:44:05.053Z,12632.00
2019-03-19T14:45:05.041Z,12772.00
2019-03-19T14:46:05.056Z,21056.00
2019-03-19T14:47:04.043Z,23168.00
2019-03-19T14:48:06.249Z,17984.00
2019-03-19T14:49:05.039Z,20160.00
2019-03-19T14:50:05.040Z,14128.00
2019-03-19T14:51:05.041Z,22944.00
2019-03-19T14:52:05.043Z,17376.00
2019-03-19T14:53:05.036Z,24480.00
2019-03-19T14:54:05.041Z,14800.00
2019-03-19T14:55:05.042Z,14908.00
2019-03-19T14:56:05.043Z,14280.00
2019-03-19T14:57:05.058Z,12868.00
2019-03-19T14:58:03.312Z,12656.00
2019-03-19T14:59:05.064Z,12592.00
2019-03-19T15:00:05.037Z,12524.00
2019-03-19T15:01:05.039Z,12516.00
2019-03-19T15:02:05.041Z,12520.00
2019-03-19T15:03:05.057Z,12736.00
2019-03-19T15:04:05.051Z,12700.00
2019-03-19T15:05:05.042Z,12640.00
2019-03-19T15:06:05.039Z,12360.00
2019-03-19T15:07:05.029Z,12252.00
2019-03-19T15:08:05.039Z,11864.00
2019-03-19T15:09:05.039Z,11012.00
2019-03-19T15:10:05.045Z,10176.00
2019-03-19T15:11:06.029Z,9456.00
2019-03-19T15:12:05.045Z,8756.00
2019-03-19T15:13:05.038Z,8128.00
2019-03-19T15:14:05.089Z,7532.00
2019-03-19T15:15:05.048Z,6980.00
2019-03-19T15:16:05.056Z,8224.00
2019-03-19T15:17:05.434Z,6020.00
2019-03-19T15:18:05.039Z,5948.00
2019-03-19T15:19:05.027Z,6048.00
2019-03-19T15:20:05.028Z,8228.00
2019-03-19T15:21:05.038Z,6116.00
2019-03-19T15:22:05.048Z,5984.00
2019-03-19T15:23:05.040Z,6556.00
2019-03-19T15:24:04.543Z,11328.00
2019-03-19T15:25:03.042Z,5528.00
2019-03-19T15:26:04.541Z,9676.00
2019-03-19T15:27:04.538Z,9556.00
2019-03-19T15:28:04.551Z,6856.00
2019-03-19T15:29:04.539Z,7612.00
2019-03-19T15:30:04.538Z,9844.00
2019-03-19T15:31:04.526Z,9712.00
2019-03-19T15:32:04.553Z,11648.00
2019-03-19T15:33:04.538Z,11760.00
2019-03-19T15:34:04.548Z,12780.00
2019-03-19T15:35:04.541Z,13592.00
2019-03-19T15:36:02.925Z,14080.00
2019-03-19T15:37:04.539Z,14240.00
2019-03-19T15:38:04.537Z,14560.00
2019-03-19T15:39:04.555Z,14400.00
2019-03-19T15:40:04.587Z,14176.00
2019-03-19T15:41:04.549Z,13076.00
2019-03-19T15:42:04.537Z,15040.00
2019-03-19T15:43:04.529Z,14016.00
2019-03-19T15:44:04.543Z,8164.00
2019-03-19T15:45:04.537Z,9504.00
2019-03-19T15:46:04.539Z,6840.00
2019-03-19T15:47:04.539Z,5980.00
2019-03-19T15:48:04.541Z,5612.00
2019-03-19T15:49:04.540Z,5276.00
2019-03-19T15:50:04.548Z,5136.00
2019-03-19T15:51:04.552Z,5120.00
2019-03-19T15:52:04.527Z,5172.00
2019-03-19T15:53:04.542Z,5224.00
2019-03-19T15:54:04.539Z,5260.00
2019-03-19T15:55:04.540Z,5292.00
2019-03-19T15:56:04.543Z,5448.00
2019-03-19T15:57:04.537Z,5408.00
2019-03-19T15:58:04.540Z,5412.00
2019-03-19T15:59:04.539Z,5504.00
2019-03-19T16:00:04.541Z,5568.00
2019-03-19T16:01:04.539Z,5668.00
2019-03-19T16:02:04.548Z,5700.00
2019-03-19T16:03:02.610Z,5768.00
2019-03-19T16:04:32.993Z,6128.00
2019-03-19T16:05:34.712Z,6580.00
2019-03-19T16:06:34.712Z,8824.00
2019-03-19T16:07:34.717Z,8268.00
2019-03-19T16:08:32.942Z,6776.00
2019-03-19T16:09:34.714Z,6052.00
2019-03-19T16:10:34.742Z,5668.00
2019-03-19T16:11:34.756Z,7276.00
2019-03-19T16:12:34.722Z,7688.00
2019-03-19T16:13:34.710Z,6596.00
2019-03-19T16:14:34.712Z,6416.00
2019-03-19T16:15:34.716Z,6712.00
2019-03-19T16:16:34.712Z,6352.00
2019-03-19T16:17:34.711Z,6188.00
2019-03-19T16:18:34.718Z,6228.00
2019-03-19T16:19:34.721Z,6060.00
2019-03-19T16:20:34.701Z,5736.00
2019-03-19T16:21:34.711Z,5424.00
2019-03-19T16:22:34.712Z,5164.00
2019-03-19T16:23:34.723Z,4928.00
2019-03-19T16:24:34.712Z,4700.00
2019-03-19T16:25:34.711Z,4460.00
2019-03-19T16:26:34.710Z,4224.00
2019-03-19T16:27:34.711Z,4080.00
2019-03-19T16:28:34.729Z,3636.00
2019-03-19T16:29:33.715Z,3524.00
2019-03-19T16:30:34.211Z,3448.00
2019-03-19T16:31:34.217Z,3444.00
2019-03-19T16:32:34.211Z,3476.00
2019-03-19T16:33:34.210Z,3560.00
2019-03-19T16:34:34.213Z,3684.00
2019-03-19T16:35:34.214Z,3836.00
2019-03-19T16:36:34.223Z,3892.00
2019-03-19T16:37:34.216Z,3880.00
2019-03-19T16:38:34.201Z,3796.00
2019-03-19T16:39:35.298Z,3612.00
2019-03-19T16:40:34.211Z,3464.00
2019-03-19T16:41:34.211Z,3284.00
2019-03-19T16:42:34.223Z,3052.00
2019-03-19T16:43:34.212Z,2856.00
2019-03-19T16:44:34.210Z,2724.00
2019-03-19T16:45:34.212Z,2596.00
2019-03-19T16:46:34.218Z,2540.00
2019-03-19T16:47:34.230Z,2500.00
2019-03-19T16:48:34.213Z,2468.00
2019-03-19T16:49:34.212Z,2460.00
2019-03-19T16:50:34.209Z,2508.00
2019-03-19T16:51:34.236Z,2576.00
2019-03-19T16:52:34.249Z,2632.00
2019-03-19T16:53:32.475Z,2696.00
2019-03-19T16:54:34.212Z,2748.00
2019-03-19T16:55:34.213Z,2764.00
2019-03-19T16:56:34.212Z,2772.00
2019-03-19T16:57:34.212Z,2756.00
2019-03-19T16:58:34.202Z,2684.00
2019-03-19T16:59:34.218Z,2636.00
2019-03-19T17:00:34.212Z,2608.00
2019-03-19T17:01:34.213Z,2544.00
2019-03-19T17:02:34.210Z,2448.00
2019-03-19T17:03:34.210Z,2364.00
2019-03-19T17:04:34.229Z,2296.00
2019-03-19T17:05:34.216Z,2240.00
2019-03-19T17:06:34.212Z,2160.00
2019-03-19T17:07:34.211Z,2044.00
2019-03-19T17:08:34.213Z,1896.00
2019-03-19T17:09:34.212Z,1764.00
2019-03-19T17:10:34.219Z,1700.00
2019-03-19T17:11:34.233Z,1660.00
2019-03-19T17:12:34.209Z,1620.00
2019-03-19T17:13:34.215Z,1564.00
2019-03-19T17:14:34.214Z,1516.00
2019-03-19T17:15:34.222Z,1456.00
2019-03-19T17:16:33.710Z,1384.00
2019-03-19T17:17:33.699Z,1296.00
2019-03-19T17:18:33.710Z,1204.00
2019-03-19T17:19:33.719Z,1116.00
2019-03-19T17:20:33.709Z,1020.00
2019-03-19T17:21:32.162Z,944.00
2019-03-19T17:22:33.714Z,888.00
2019-03-19T17:23:33.708Z,840.00
2019-03-19T17:24:33.725Z,800.00
2019-03-19T17:25:33.709Z,752.00
2019-03-19T17:26:33.711Z,704.00
2019-03-19T17:27:33.728Z,664.00
2019-03-19T17:28:33.710Z,628.00
2019-03-19T17:29:33.720Z,584.00
2019-03-19T17:30:33.757Z,544.00
2019-03-19T17:31:33.722Z,504.00
2019-03-19T17:32:33.758Z,460.00
2019-03-19T17:33:33.708Z,416.00
2019-03-19T17:34:33.708Z,376.00
2019-03-19T17:35:33.717Z,340.00
2019-03-19T17:36:33.707Z,312.00
2019-03-19T17:37:33.697Z,288.00
2019-03-19T17:38:31.984Z,264.00
2019-03-19T17:39:33.719Z,240.00
2019-03-19T17:40:41.363Z,220.00
2019-03-19T17:41:34.709Z,204.00
2019-03-19T17:42:33.696Z,188.00
2019-03-19T17:43:33.705Z,172.00
2019-03-19T17:44:33.714Z,160.00
2019-03-19T17:45:33.717Z,144.00
2019-03-19T17:46:33.738Z,124.00
2019-03-19T17:47:33.718Z,108.00
2019-03-19T17:48:33.705Z,96.00
2019-03-19T17:49:33.696Z,84.00
2019-03-19T17:50:33.712Z,76.00
2019-03-19T17:51:33.716Z,68.00
2019-03-19T17:52:33.730Z,56.00
2019-03-19T17:53:33.711Z,48.00
2019-03-19T17:54:33.711Z,40.00
2019-03-19T17:55:31.816Z,32.00
2019-03-19T17:56:33.705Z,28.00
2019-03-19T17:57:33.696Z,24.00
2019-03-19T17:58:33.712Z,20.00
2019-03-19T17:59:34.733Z,20.00
2019-03-19T18:00:33.707Z,12.00
2019-03-19T18:01:35.847Z,12.00
2019-03-19T18:02:33.720Z,12.00
2019-03-19T18:03:33.205Z,8.00
2019-03-19T18:04:33.208Z,8.00
2019-03-19T18:05:33.230Z,4.00
2019-03-19T18:06:33.194Z,4.00
2019-03-19T18:07:33.212Z,4.00
2019-03-19T18:08:33.204Z,4.00
2019-03-19T18:09:33.197Z,4.00
2019-03-19T18:10:33.216Z,4.00
2019-03-19T18:11:33.226Z,0.00
2019-03-19T18:12:31.624Z,0.00
2019-03-19T18:13:33.205Z,0.00
2019-03-19T18:14:33.193Z,0.00
2019-03-19T18:15:33.203Z,0.00
2019-03-19T18:16:33.203Z,0.00
2019-03-19T18:17:33.208Z,0.00
2019-03-19T18:18:33.205Z,0.00
2019-03-19T18:19:33.205Z,0.00
2019-03-19T18:20:33.203Z,0.00
2019-03-19T18:21:33.214Z,0.00
2019-03-19T18:22:33.205Z,0.00
2019-03-19T18:23:33.220Z,0.00
2019-03-19T18:24:33.205Z,0.00
2019-03-19T18:25:33.204Z,0.00
2019-03-19T18:26:33.202Z,0.00
2019-03-19T18:27:33.203Z,0.00
2019-03-19T18:28:33.211Z,0.00
2019-03-19T18:29:33.204Z,0.00
2019-03-19T18:30:33.212Z,0.00
2019-03-19T18:31:33.218Z,0.00
2019-03-19T18:32:35.374Z,0.00
2019-03-19T18:33:33.205Z,0.00
2019-03-19T18:34:33.208Z,0.00
2019-03-19T18:35:33.204Z,0.00
2019-03-19T18:36:33.203Z,0.00
2019-03-19T18:37:33.205Z,0.00
2019-03-19T18:38:33.194Z,0.00
2019-03-19T18:39:35.491Z,0.00
2019-03-19T18:40:32.212Z,0.00
2019-03-19T18:41:33.207Z,0.00
2019-03-19T18:42:33.202Z,0.00
2019-03-19T18:43:33.204Z,0.00
2019-03-19T18:44:33.210Z,0.00
2019-03-19T18:45:33.217Z,0.00
2019-03-19T18:46:33.200Z,0.00
2019-03-19T18:47:33.199Z,0.00
2019-03-19T18:48:33.200Z,0.00
2019-03-19T18:49:33.190Z,0.00
2019-03-19T18:50:32.702Z,0.00
2019-03-19T18:51:32.719Z,0.00
2019-03-19T18:52:32.700Z,0.00
2019-03-19T18:53:32.700Z,0.00
2019-03-19T18:54:32.701Z,0.00
2019-03-19T18:55:32.703Z,0.00
2019-03-19T18:56:32.787Z,0.00
2019-03-19T18:57:31.139Z,0.00
2019-03-19T18:58:32.699Z,0.00
2019-03-19T18:59:32.699Z,0.00
2019-03-19T19:00:32.703Z,0.00
2019-03-19T19:01:32.707Z,0.00
2019-03-19T19:02:32.701Z,0.00
2019-03-19T19:03:32.701Z,0.00
2019-03-19T19:04:32.699Z,0.00
2019-03-19T19:05:32.700Z,0.00
2019-03-19T19:06:32.698Z,0.00
2019-03-19T19:07:32.706Z,0.00
2019-03-19T19:08:32.716Z,0.00
2019-03-19T19:09:32.704Z,0.00
2019-03-19T19:10:32.699Z,0.00
2019-03-19T19:11:32.697Z,0.00
2019-03-19T19:12:32.701Z,0.00
2019-03-19T19:13:32.704Z,0.00
2019-03-19T19:14:32.700Z,0.00
2019-03-19T19:15:32.699Z,0.00
2019-03-19T19:16:32.714Z,0.00
2019-03-19T19:17:32.704Z,0.00
2019-03-19T19:18:32.739Z,0.00
2019-03-19T19:19:33.699Z,0.00
2019-03-19T19:20:32.716Z,0.00
2019-03-19T19:21:32.686Z,0.00
2019-03-19T19:22:32.705Z,0.00
2019-03-19T19:23:32.707Z,0.00
2019-03-19T19:24:33.706Z,0.00
2019-03-19T19:25:33.696Z,0.00
2019-03-19T19:26:31.706Z,0.00
2019-03-19T19:27:32.707Z,0.00
2019-03-19T19:28:32.696Z,0.00
2019-03-19T19:29:32.711Z,0.00
2019-03-19T19:30:32.697Z,0.00
2019-03-19T19:31:32.733Z,0.00
2019-03-19T19:32:30.796Z,0.00
2019-03-19T19:33:32.724Z,0.00
2019-03-19T19:34:32.707Z,0.00
2019-03-19T19:35:32.699Z,0.00
2019-03-19T19:36:32.727Z,0.00
2019-03-19T19:37:32.696Z,0.00
2019-03-19T19:38:32.183Z,0.00
2019-03-19T19:39:32.202Z,0.00
2019-03-19T19:40:32.204Z,0.00
2019-03-19T19:41:32.255Z,0.00
2019-03-19T19:42:32.251Z,0.00
2019-03-19T19:43:32.224Z,0.00
2019-03-19T19:44:32.234Z,0.00
2019-03-19T19:45:33.225Z,0.00
2019-03-19T19:46:32.196Z,0.00
2019-03-19T19:47:32.203Z,0.00
2019-03-19T19:48:33.199Z,0.00
2019-03-19T19:49:31.202Z,0.00
2019-03-19T19:50:32.185Z,0.00
2019-03-19T19:51:32.192Z,0.00
2019-03-19T19:52:32.201Z,0.00
2019-03-19T19:53:32.194Z,0.00
2019-03-19T19:54:32.281Z,0.00
2019-03-19T19:55:30.566Z,0.00
2019-03-19T19:56:32.191Z,0.00
2019-03-19T19:57:33.193Z,0.00
2019-03-19T19:58:32.194Z,0.00
2019-03-19T19:59:32.202Z,0.00
2019-03-19T20:00:32.197Z,0.00
2019-03-19T20:01:30.451Z,0.00
2019-03-19T20:02:32.221Z,0.00
2019-03-19T20:03:32.191Z,0.00
2019-03-19T20:04:32.198Z,0.00
2019-03-19T20:05:34.012Z,0.00
2019-03-19T20:06:32.193Z,0.00
2019-03-19T20:07:32.193Z,0.00
2019-03-19T20:08:32.193Z,0.00
2019-03-19T20:09:32.259Z,0.00
2019-03-19T20:10:32.221Z,0.00
2019-03-19T20:11:32.191Z,0.00
2019-03-19T20:12:32.272Z,0.00
2019-03-19T20:13:32.196Z,0.00
2019-03-19T20:14:32.241Z,0.00
2019-03-19T20:15:32.199Z,0.00
2019-03-19T20:16:32.188Z,0.00
2019-03-19T20:17:33.202Z,0.00
2019-03-19T20:18:31.219Z,0.00
2019-03-19T20:19:32.192Z,0.00
2019-03-19T20:20:32.198Z,0.00
2019-03-19T20:21:32.257Z,0.00
2019-03-19T20:22:32.188Z,0.00
2019-03-19T20:23:32.312Z,0.00
2019-03-19T20:24:32.188Z,0.00
2019-03-19T20:25:32.239Z,0.00
2019-03-19T20:26:31.689Z,0.00
2019-03-19T20:27:32.698Z,0.00
2019-03-19T20:28:31.760Z,0.00
2019-03-19T20:29:31.687Z,0.00
2019-03-19T20:30:31.691Z,0.00
2019-03-19T20:31:31.689Z,0.00
2019-03-19T20:32:31.790Z,0.00
2019-03-19T20:33:31.701Z,0.00
2019-03-19T20:34:31.728Z,0.00
2019-03-19T20:35:30.690Z,0.00
2019-03-19T20:36:31.727Z,0.00
2019-03-19T20:37:32.716Z,0.00
2019-03-19T20:38:31.785Z,0.00
2019-03-19T20:39:31.759Z,0.00
2019-03-19T20:40:31.689Z,0.00
2019-03-19T20:41:31.689Z,0.00
2019-03-19T20:42:31.689Z,0.00
2019-03-19T20:43:31.686Z,0.00
2019-03-19T20:44:31.696Z,0.00
2019-03-19T20:45:31.688Z,0.00
2019-03-19T20:46:31.685Z,0.00
2019-03-19T20:47:31.685Z,0.00
2019-03-19T20:48:31.685Z,0.00
2019-03-19T20:49:31.691Z,0.00
2019-03-19T20:50:31.692Z,0.00
2019-03-19T20:51:31.688Z,0.00
2019-03-19T20:52:31.684Z,0.00
2019-03-19T20:53:31.673Z,0.00
2019-03-19T20:54:31.686Z,0.00
2019-03-19T20:55:31.702Z,0.00
2019-03-19T20:56:31.686Z,0.00
2019-03-19T20:57:31.695Z,0.00
2019-03-19T20:58:42.910Z,0.00
2019-03-19T20:59:32.699Z,0.00
2019-03-19T21:00:31.686Z,0.00
2019-03-19T21:01:31.685Z,0.00
2019-03-19T21:02:31.683Z,0.00
2019-03-19T21:03:36.019Z,0.00
2019-03-19T21:04:31.712Z,0.00
2019-03-19T21:05:31.690Z,0.00
2019-03-19T21:06:31.686Z,0.00
2019-03-19T21:07:31.687Z,0.00
2019-03-19T21:08:31.690Z,0.00
2019-03-19T21:09:31.686Z,0.00
2019-03-19T21:10:31.684Z,0.00
2019-03-19T21:11:31.691Z,0.00
2019-03-19T21:12:31.682Z,0.00
2019-03-19T21:13:31.187Z,0.00
2019-03-19T21:14:31.183Z,0.00
2019-03-19T21:15:31.183Z,0.00
2019-03-19T21:16:31.182Z,0.00
2019-03-19T21:17:31.208Z,0.00
2019-03-19T21:18:31.183Z,0.00
2019-03-19T21:19:31.191Z,0.00
2019-03-19T21:20:31.183Z,0.00
2019-03-19T21:21:29.600Z,0.00
2019-03-19T21:22:31.185Z,0.00
2019-03-19T21:23:31.195Z,0.00
2019-03-19T21:24:31.189Z,0.00
2019-03-19T21:25:31.184Z,0.00
2019-03-19T21:26:31.182Z,0.00
2019-03-19T21:27:31.181Z,0.00
2019-03-19T21:28:31.184Z,0.00
2019-03-19T21:29:31.181Z,0.00
2019-03-19T21:30:31.186Z,0.00
2019-03-19T21:31:31.179Z,0.00
2019-03-19T21:32:31.266Z,0.00
2019-03-19T21:33:31.181Z,0.00
2019-03-19T21:34:31.169Z,0.00
2019-03-19T21:35:31.179Z,0.00
2019-03-19T21:36:31.217Z,0.00
2019-03-19T21:37:31.180Z,0.00
2019-03-19T21:38:31.180Z,0.00
2019-03-19T21:39:31.182Z,0.00